TimeEST,TemperatureF,Dew PointF,Humidity,Sea Level PressureIn,VisibilityMPH,Wind Direction,Wind SpeedMPH,Gust SpeedMPH,PrecipitationIn,Events,Conditions,WindDirDegrees,DateUTC
12:15 AM,30.9,22.1,70,30.34,10.0,Calm,Calm,-,N/A,,Clear,0,2012-12-14 05:15:00
12:35 AM,29.7,22.1,73,30.33,10.0,Calm,Calm,-,N/A,,Clear,0,2012-12-14 05:35:00
12:55 AM,28.9,21.9,75,30.33,10.0,Calm,Calm,-,N/A,,Clear,0,2012-12-14 05:55:00
1:15 AM,28.4,21.6,76,30.33,10.0,Calm,Calm,-,N/A,,Clear,0,2012-12-14 06:15:00
1:35 AM,29.8,21.4,71,30.33,10.0,Calm,Calm,-,N/A,,Clear,0,2012-12-14 06:35:00
1:55 AM,28.6,21.0,73,30.33,10.0,Calm,Calm,-,N/A,,Clear,0,2012-12-14 06:55:00
2:15 AM,27.5,20.8,76,30.32,10.0,Calm,Calm,-,N/A,,Clear,0,2012-12-14 07:15:00
2:35 AM,28.0,21.2,76,30.32,10.0,Calm,Calm,-,N/A,,Clear,0,2012-12-14 07:35:00
2:55 AM,27.3,20.8,77,30.32,10.0,Calm,Calm,-,N/A,,Clear,0,2012-12-14 07:55:00
3:55 AM,26.6,20.7,78,30.32,10.0,WNW,3.5,-,N/A,,Clear,300,2012-12-14 08:55:00
4:15 AM,25.9,21.2,82,30.32,10.0,Calm,Calm,-,N/A,,Clear,0,2012-12-14 09:15:00
4:35 AM,25.7,21.2,83,30.31,10.0,Calm,Calm,-,N/A,,Clear,0,2012-12-14 09:35:00
4:55 AM,27.1,21.6,80,30.30,10.0,Calm,Calm,-,N/A,,Clear,0,2012-12-14 09:55:00
5:15 AM,27.0,21.0,78,30.31,10.0,Calm,Calm,-,N/A,,Clear,0,2012-12-14 10:15:00
5:35 AM,25.5,19.9,79,30.32,10.0,Calm,Calm,-,N/A,,Clear,0,2012-12-14 10:35:00
6:15 AM,27.0,20.7,77,30.33,10.0,Calm,Calm,-,N/A,,Clear,0,2012-12-14 11:15:00
6:35 AM,26.1,20.5,79,30.34,10.0,Calm,Calm,-,N/A,,Clear,0,2012-12-14 11:35:00
6:55 AM,25.0,19.9,81,30.33,10.0,Calm,Calm,-,N/A,,Clear,0,2012-12-14 11:55:00
7:15 AM,25.9,19.9,78,30.33,10.0,Calm,Calm,-,N/A,,Clear,0,2012-12-14 12:15:00
7:35 AM,25.5,19.4,78,30.33,10.0,Calm,Calm,-,N/A,,Clear,0,2012-12-14 12:35:00
7:55 AM,27.5,20.1,74,30.32,10.0,Calm,Calm,-,N/A,,Clear,0,2012-12-14 12:55:00
8:15 AM,29.1,21.9,74,30.32,10.0,Calm,Calm,-,N/A,,Clear,0,2012-12-14 13:15:00
8:35 AM,31.1,24.6,77,30.32,10.0,Calm,Calm,-,N/A,,Clear,0,2012-12-14 13:35:00
8:55 AM,32.0,25.7,78,30.32,10.0,Calm,Calm,-,N/A,,Clear,0,2012-12-14 13:55:00
9:15 AM,34.9,26.8,72,30.33,10.0,Calm,Calm,-,N/A,,Clear,0,2012-12-14 14:15:00
9:35 AM,36.9,25.7,64,30.34,10.0,Calm,Calm,-,N/A,,Clear,0,2012-12-14 14:35:00
9:55 AM,39.9,27.3,61,30.34,10.0,Calm,Calm,-,N/A,,Clear,0,2012-12-14 14:55:00
10:15 AM,42.4,23.5,47,30.34,10.0,Calm,Calm,-,N/A,,Clear,0,2012-12-14 15:15:00
10:35 AM,43.0,24.3,48,30.34,10.0,Calm,Calm,-,N/A,,Clear,0,2012-12-14 15:35:00
10:55 AM,45.7,25.9,46,30.33,10.0,Calm,Calm,-,N/A,,Clear,0,2012-12-14 15:55:00
11:15 AM,46.9,25.5,43,30.32,10.0,SSW,4.6,-,N/A,,Clear,210,2012-12-14 16:15:00
11:35 AM,48.9,24.8,39,30.32,10.0,Calm,Calm,-,N/A,,Clear,0,2012-12-14 16:35:00
11:55 AM,52.0,24.3,34,30.30,10.0,WSW,3.5,-,N/A,,Clear,240,2012-12-14 16:55:00
12:15 PM,52.9,24.1,33,30.29,10.0,West,3.5,-,N/A,,Clear,260,2012-12-14 17:15:00
12:35 PM,53.6,23.2,31,30.28,10.0,South,3.5,-,N/A,,Clear,190,2012-12-14 17:35:00
12:55 PM,54.7,22.8,29,30.27,10.0,SW,4.6,-,N/A,,Clear,230,2012-12-14 17:55:00
1:15 PM,55.4,23.0,29,30.26,10.0,Calm,Calm,-,N/A,,Clear,0,2012-12-14 18:15:00
1:35 PM,55.9,23.4,28,30.25,10.0,South,3.5,-,N/A,,Clear,190,2012-12-14 18:35:00
1:55 PM,57.2,23.9,28,30.24,10.0,SSW,3.5,-,N/A,,Clear,210,2012-12-14 18:55:00
2:15 PM,57.2,23.2,27,30.22,10.0,SE,3.5,-,N/A,,Clear,140,2012-12-14 19:15:00
2:35 PM,57.9,22.6,26,30.22,10.0,SSW,3.5,-,N/A,,Clear,210,2012-12-14 19:35:00
2:55 PM,58.8,23.2,25,30.22,10.0,WSW,3.5,-,N/A,,Clear,240,2012-12-14 19:55:00
3:15 PM,58.1,22.5,25,30.22,10.0,SSW,3.5,-,N/A,,Clear,200,2012-12-14 20:15:00
3:35 PM,58.3,22.5,25,30.22,10.0,South,4.6,-,N/A,,Clear,170,2012-12-14 20:35:00
3:55 PM,57.9,21.7,25,30.22,10.0,South,4.6,-,N/A,,Clear,190,2012-12-14 20:55:00
4:15 PM,57.4,23.2,27,30.22,10.0,SSE,3.5,-,N/A,,Clear,160,2012-12-14 21:15:00
4:35 PM,56.3,23.5,28,30.22,10.0,SSE,4.6,-,N/A,,Clear,150,2012-12-14 21:35:00
5:15 PM,53.1,25.9,35,30.22,10.0,Calm,Calm,-,N/A,,Clear,0,2012-12-14 22:15:00
5:35 PM,48.9,27.5,43,30.22,10.0,Calm,Calm,-,N/A,,Clear,0,2012-12-14 22:35:00
5:55 PM,45.9,28.8,51,30.22,10.0,Calm,Calm,-,N/A,,Clear,0,2012-12-14 22:55:00
6:15 PM,43.0,28.6,57,30.22,10.0,Calm,Calm,-,N/A,,Clear,0,2012-12-14 23:15:00
6:35 PM,42.6,29.5,60,30.24,10.0,Calm,Calm,-,N/A,,Clear,0,2012-12-14 23:35:00
6:55 PM,40.3,28.9,64,30.23,10.0,Calm,Calm,-,N/A,,Clear,0,2012-12-14 23:55:00
7:15 PM,39.6,29.7,68,30.24,10.0,Calm,Calm,-,N/A,,Clear,0,2012-12-15 00:15:00
7:35 PM,38.3,28.4,68,30.24,10.0,Calm,Calm,-,N/A,,Clear,0,2012-12-15 00:35:00
7:55 PM,38.5,28.6,68,30.24,10.0,Calm,Calm,-,N/A,,Clear,0,2012-12-15 00:55:00
8:15 PM,37.4,29.3,73,30.24,10.0,Calm,Calm,-,N/A,,Clear,0,2012-12-15 01:15:00
8:55 PM,36.9,29.3,74,30.24,10.0,Calm,Calm,-,N/A,,Clear,0,2012-12-15 01:55:00
9:15 PM,36.0,29.3,77,30.24,10.0,Calm,Calm,-,N/A,,Clear,0,2012-12-15 02:15:00
9:35 PM,35.2,29.1,78,30.24,10.0,Calm,Calm,-,N/A,,Clear,0,2012-12-15 02:35:00
9:55 PM,35.4,28.2,75,30.23,10.0,Calm,Calm,-,N/A,,Clear,0,2012-12-15 02:55:00
10:15 PM,35.2,28.6,77,30.22,10.0,Calm,Calm,-,N/A,,Clear,0,2012-12-15 03:15:00
10:35 PM,36.9,28.4,71,30.23,10.0,Calm,Calm,-,N/A,,Clear,0,2012-12-15 03:35:00
10:55 PM,35.8,28.9,76,30.23,10.0,Calm,Calm,-,N/A,,Clear,0,2012-12-15 03:55:00
11:15 PM,35.6,29.3,78,30.23,10.0,Calm,Calm,-,N/A,,Clear,0,2012-12-15 04:15:00
11:35 PM,36.3,28.9,75,30.23,10.0,Calm,Calm,-,N/A,,Clear,0,2012-12-15 04:35:00
11:55 PM,36.3,28.9,75,30.23,10.0,Calm,Calm,-,N/A,,Clear,0,2012-12-15 04:55:00